sensor_id;sensor_type;location;lat;lon;timestamp;P1;durP1;ratioP1;P2;durP2;ratioP2
26325;SDS011;14032;52.510;7.342;2024-03-22T00:00:17;64.80;;;42.35;;
26325;SDS011;14032;52.510;7.342;2024-03-22T00:02:43;65.75;;;40.50;;
26325;SDS011;14032;52.510;7.342;2024-03-22T00:05:10;73.07;;;42.50;;
26325;SDS011;14032;52.510;7.342;2024-03-22T00:07:35;68.88;;;42.03;;
26325;SDS011;14032;52.510;7.342;2024-03-22T00:10:02;66.40;;;39.88;;
26325;SDS011;14032;52.510;7.342;2024-03-22T00:12:28;64.93;;;39.90;;
26325;SDS011;14032;52.510;7.342;2024-03-22T00:14:53;63.90;;;40.28;;
26325;SDS011;14032;52.510;7.342;2024-03-22T00:17:19;65.57;;;40.63;;
26325;SDS011;14032;52.510;7.342;2024-03-22T00:19:45;63.35;;;38.63;;
26325;SDS011;14032;52.510;7.342;2024-03-22T00:22:11;66.85;;;40.40;;
26325;SDS011;14032;52.510;7.342;2024-03-22T00:24:37;65.45;;;39.90;;
26325;SDS011;14032;52.510;7.342;2024-03-22T00:27:03;59.15;;;39.00;;
26325;SDS011;14032;52.510;7.342;2024-03-22T00:29:29;63.15;;;38.25;;
26325;SDS011;14032;52.510;7.342;2024-03-22T00:31:54;68.90;;;40.35;;
26325;SDS011;14032;52.510;7.342;2024-03-22T00:34:20;62.85;;;39.03;;
26325;SDS011;14032;52.510;7.342;2024-03-22T00:36:46;67.43;;;40.55;;
26325;SDS011;14032;52.510;7.342;2024-03-22T00:39:11;64.22;;;38.67;;
26325;SDS011;14032;52.510;7.342;2024-03-22T00:41:37;66.88;;;39.50;;
26325;SDS011;14032;52.510;7.342;2024-03-22T00:44:04;67.70;;;39.67;;
26325;SDS011;14032;52.510;7.342;2024-03-22T00:46:30;64.53;;;39.45;;
26325;SDS011;14032;52.510;7.342;2024-03-22T00:48:56;68.35;;;39.28;;
26325;SDS011;14032;52.510;7.342;2024-03-22T00:51:24;71.45;;;41.20;;
26325;SDS011;14032;52.510;7.342;2024-03-22T00:53:52;67.22;;;38.58;;
26325;SDS011;14032;52.510;7.342;2024-03-22T00:56:18;66.32;;;40.40;;
26325;SDS011;14032;52.510;7.342;2024-03-22T00:58:43;66.45;;;39.78;;
26325;SDS011;14032;52.510;7.342;2024-03-22T01:01:09;64.43;;;39.53;;
26325;SDS011;14032;52.510;7.342;2024-03-22T01:03:35;67.25;;;39.78;;
26325;SDS011;14032;52.510;7.342;2024-03-22T01:06:01;66.30;;;39.28;;
26325;SDS011;14032;52.510;7.342;2024-03-22T01:08:27;66.57;;;38.05;;
26325;SDS011;14032;52.510;7.342;2024-03-22T01:10:53;65.72;;;37.88;;
26325;SDS011;14032;52.510;7.342;2024-03-22T01:13:18;63.97;;;37.67;;
26325;SDS011;14032;52.510;7.342;2024-03-22T01:15:44;67.78;;;38.30;;
26325;SDS011;14032;52.510;7.342;2024-03-22T01:18:11;66.68;;;39.10;;
26325;SDS011;14032;52.510;7.342;2024-03-22T01:20:37;67.60;;;38.20;;
26325;SDS011;14032;52.510;7.342;2024-03-22T01:23:02;63.30;;;38.55;;
26325;SDS011;14032;52.510;7.342;2024-03-22T01:25:29;64.72;;;38.65;;
26325;SDS011;14032;52.510;7.342;2024-03-22T01:27:55;74.07;;;41.67;;
26325;SDS011;14032;52.510;7.342;2024-03-22T01:30:21;64.57;;;38.10;;
26325;SDS011;14032;52.510;7.342;2024-03-22T01:32:46;64.82;;;38.33;;
26325;SDS011;14032;52.510;7.342;2024-03-22T01:35:12;74.22;;;39.58;;
26325;SDS011;14032;52.510;7.342;2024-03-22T01:37:38;71.38;;;40.00;;
26325;SDS011;14032;52.510;7.342;2024-03-22T01:40:03;70.13;;;39.70;;
26325;SDS011;14032;52.510;7.342;2024-03-22T01:42:30;72.32;;;40.50;;
26325;SDS011;14032;52.510;7.342;2024-03-22T01:44:55;67.53;;;39.08;;
26325;SDS011;14032;52.510;7.342;2024-03-22T01:47:21;67.38;;;39.85;;
26325;SDS011;14032;52.510;7.342;2024-03-22T01:49:47;77.32;;;41.55;;
26325;SDS011;14032;52.510;7.342;2024-03-22T01:52:15;76.07;;;40.63;;
26325;SDS011;14032;52.510;7.342;2024-03-22T01:54:41;73.50;;;40.53;;
26325;SDS011;14032;52.510;7.342;2024-03-22T01:57:07;70.45;;;40.25;;
26325;SDS011;14032;52.510;7.342;2024-03-22T01:59:33;74.38;;;39.80;;
26325;SDS011;14032;52.510;7.342;2024-03-22T02:01:59;70.15;;;39.50;;
26325;SDS011;14032;52.510;7.342;2024-03-22T02:04:25;70.82;;;38.85;;
26325;SDS011;14032;52.510;7.342;2024-03-22T02:06:51;70.05;;;38.88;;
26325;SDS011;14032;52.510;7.342;2024-03-22T02:09:16;74.50;;;40.22;;
26325;SDS011;14032;52.510;7.342;2024-03-22T02:11:42;68.90;;;39.72;;
26325;SDS011;14032;52.510;7.342;2024-03-22T02:14:08;73.82;;;38.72;;
26325;SDS011;14032;52.510;7.342;2024-03-22T02:16:33;73.32;;;40.08;;
26325;SDS011;14032;52.510;7.342;2024-03-22T02:18:59;71.15;;;39.03;;
26325;SDS011;14032;52.510;7.342;2024-03-22T02:21:25;71.72;;;38.78;;
26325;SDS011;14032;52.510;7.342;2024-03-22T02:23:50;69.25;;;39.22;;
26325;SDS011;14032;52.510;7.342;2024-03-22T02:26:16;73.78;;;39.72;;
26325;SDS011;14032;52.510;7.342;2024-03-22T02:28:41;71.30;;;39.25;;
26325;SDS011;14032;52.510;7.342;2024-03-22T02:31:07;76.93;;;40.55;;
26325;SDS011;14032;52.510;7.342;2024-03-22T02:33:49;74.82;;;39.97;;
26325;SDS011;14032;52.510;7.342;2024-03-22T02:36:14;73.35;;;40.05;;
26325;SDS011;14032;52.510;7.342;2024-03-22T02:38:40;80.60;;;38.90;;
26325;SDS011;14032;52.510;7.342;2024-03-22T02:41:06;74.10;;;40.08;;
26325;SDS011;14032;52.510;7.342;2024-03-22T02:43:31;71.45;;;39.85;;
26325;SDS011;14032;52.510;7.342;2024-03-22T02:45:57;73.10;;;39.10;;
26325;SDS011;14032;52.510;7.342;2024-03-22T02:48:22;77.60;;;38.88;;
26325;SDS011;14032;52.510;7.342;2024-03-22T02:50:48;73.88;;;38.72;;
26325;SDS011;14032;52.510;7.342;2024-03-22T02:53:13;77.45;;;40.53;;
26325;SDS011;14032;52.510;7.342;2024-03-22T02:55:39;76.20;;;38.92;;
26325;SDS011;14032;52.510;7.342;2024-03-22T02:58:05;74.22;;;39.60;;
26325;SDS011;14032;52.510;7.342;2024-03-22T03:00:35;72.15;;;38.40;;
26325;SDS011;14032;52.510;7.342;2024-03-22T03:03:03;81.03;;;40.25;;
26325;SDS011;14032;52.510;7.342;2024-03-22T03:05:29;72.22;;;38.97;;
26325;SDS011;14032;52.510;7.342;2024-03-22T03:07:55;75.15;;;39.05;;
26325;SDS011;14032;52.510;7.342;2024-03-22T03:10:20;75.25;;;39.20;;
26325;SDS011;14032;52.510;7.342;2024-03-22T03:12:46;71.82;;;37.15;;
26325;SDS011;14032;52.510;7.342;2024-03-22T03:15:12;72.97;;;38.20;;
26325;SDS011;14032;52.510;7.342;2024-03-22T03:17:37;75.15;;;39.50;;
26325;SDS011;14032;52.510;7.342;2024-03-22T03:20:03;78.07;;;41.08;;
26325;SDS011;14032;52.510;7.342;2024-03-22T03:22:33;80.05;;;39.08;;
26325;SDS011;14032;52.510;7.342;2024-03-22T03:25:00;83.25;;;39.08;;
26325;SDS011;14032;52.510;7.342;2024-03-22T03:27:25;77.88;;;38.17;;
26325;SDS011;14032;52.510;7.342;2024-03-22T03:29:51;80.05;;;39.78;;
26325;SDS011;14032;52.510;7.342;2024-03-22T03:32:17;77.35;;;39.92;;
26325;SDS011;14032;52.510;7.342;2024-03-22T03:34:43;75.93;;;38.90;;
26325;SDS011;14032;52.510;7.342;2024-03-22T03:37:08;81.20;;;40.20;;
26325;SDS011;14032;52.510;7.342;2024-03-22T03:39:34;80.55;;;40.33;;
26325;SDS011;14032;52.510;7.342;2024-03-22T03:41:59;75.22;;;37.33;;
26325;SDS011;14032;52.510;7.342;2024-03-22T03:44:25;76.25;;;39.75;;
26325;SDS011;14032;52.510;7.342;2024-03-22T03:46:51;76.45;;;39.53;;
26325;SDS011;14032;52.510;7.342;2024-03-22T03:49:17;84.43;;;41.30;;
26325;SDS011;14032;52.510;7.342;2024-03-22T03:51:43;76.25;;;38.97;;
26325;SDS011;14032;52.510;7.342;2024-03-22T03:54:08;74.40;;;38.55;;
26325;SDS011;14032;52.510;7.342;2024-03-22T03:56:34;78.97;;;37.95;;
26325;SDS011;14032;52.510;7.342;2024-03-22T03:58:59;74.82;;;37.65;;
26325;SDS011;14032;52.510;7.342;2024-03-22T04:01:25;79.72;;;40.03;;
26325;SDS011;14032;52.510;7.342;2024-03-22T04:03:51;83.00;;;40.63;;
26325;SDS011;14032;52.510;7.342;2024-03-22T04:06:16;77.00;;;39.88;;
26325;SDS011;14032;52.510;7.342;2024-03-22T04:08:42;81.47;;;41.13;;
26325;SDS011;14032;52.510;7.342;2024-03-22T04:11:08;80.65;;;39.22;;
26325;SDS011;14032;52.510;7.342;2024-03-22T04:13:34;78.38;;;41.15;;
26325;SDS011;14032;52.510;7.342;2024-03-22T04:16:00;78.03;;;39.28;;
26325;SDS011;14032;52.510;7.342;2024-03-22T04:18:25;77.90;;;39.03;;
26325;SDS011;14032;52.510;7.342;2024-03-22T04:20:55;84.35;;;41.80;;
26325;SDS011;14032;52.510;7.342;2024-03-22T04:23:22;79.38;;;40.70;;
26325;SDS011;14032;52.510;7.342;2024-03-22T04:25:52;88.90;;;40.53;;
26325;SDS011;14032;52.510;7.342;2024-03-22T04:28:18;74.30;;;38.63;;
26325;SDS011;14032;52.510;7.342;2024-03-22T04:30:48;83.25;;;40.38;;
26325;SDS011;14032;52.510;7.342;2024-03-22T04:33:23;78.82;;;38.30;;
26325;SDS011;14032;52.510;7.342;2024-03-22T04:35:49;77.57;;;39.40;;
26325;SDS011;14032;52.510;7.342;2024-03-22T04:38:14;80.07;;;38.88;;
26325;SDS011;14032;52.510;7.342;2024-03-22T04:40:40;79.40;;;38.50;;
26325;SDS011;14032;52.510;7.342;2024-03-22T04:43:06;78.13;;;38.67;;
26325;SDS011;14032;52.510;7.342;2024-03-22T04:45:33;82.82;;;42.17;;
26325;SDS011;14032;52.510;7.342;2024-03-22T04:47:58;77.80;;;40.15;;
26325;SDS011;14032;52.510;7.342;2024-03-22T04:50:29;79.28;;;38.85;;
26325;SDS011;14032;52.510;7.342;2024-03-22T04:52:55;80.50;;;39.08;;
26325;SDS011;14032;52.510;7.342;2024-03-22T04:55:20;79.13;;;40.42;;
26325;SDS011;14032;52.510;7.342;2024-03-22T04:57:46;76.40;;;38.88;;
26325;SDS011;14032;52.510;7.342;2024-03-22T05:00:12;78.30;;;39.10;;
26325;SDS011;14032;52.510;7.342;2024-03-22T05:02:38;83.50;;;40.35;;
26325;SDS011;14032;52.510;7.342;2024-03-22T05:05:05;83.97;;;40.88;;
26325;SDS011;14032;52.510;7.342;2024-03-22T05:07:31;90.85;;;42.03;;
26325;SDS011;14032;52.510;7.342;2024-03-22T05:09:56;82.68;;;40.50;;
26325;SDS011;14032;52.510;7.342;2024-03-22T05:12:22;85.57;;;41.17;;
26325;SDS011;14032;52.510;7.342;2024-03-22T05:14:47;81.90;;;40.17;;
26325;SDS011;14032;52.510;7.342;2024-03-22T05:17:13;80.60;;;40.22;;
26325;SDS011;14032;52.510;7.342;2024-03-22T05:19:39;84.78;;;41.08;;
26325;SDS011;14032;52.510;7.342;2024-03-22T05:22:04;83.38;;;40.22;;
26325;SDS011;14032;52.510;7.342;2024-03-22T05:24:31;85.57;;;41.40;;
26325;SDS011;14032;52.510;7.342;2024-03-22T05:26:56;82.20;;;41.47;;
26325;SDS011;14032;52.510;7.342;2024-03-22T05:29:23;91.53;;;41.70;;
26325;SDS011;14032;52.510;7.342;2024-03-22T05:31:48;80.07;;;39.85;;
26325;SDS011;14032;52.510;7.342;2024-03-22T05:34:16;80.55;;;40.28;;
26325;SDS011;14032;52.510;7.342;2024-03-22T05:36:42;80.03;;;40.72;;
26325;SDS011;14032;52.510;7.342;2024-03-22T05:39:08;79.70;;;39.28;;
26325;SDS011;14032;52.510;7.342;2024-03-22T05:41:35;82.53;;;40.13;;
26325;SDS011;14032;52.510;7.342;2024-03-22T05:44:01;84.22;;;42.58;;
26325;SDS011;14032;52.510;7.342;2024-03-22T05:46:26;76.53;;;41.33;;
26325;SDS011;14032;52.510;7.342;2024-03-22T05:48:55;86.35;;;42.90;;
26325;SDS011;14032;52.510;7.342;2024-03-22T05:51:22;75.53;;;41.25;;
26325;SDS011;14032;52.510;7.342;2024-03-22T05:53:48;80.93;;;41.17;;
26325;SDS011;14032;52.510;7.342;2024-03-22T05:56:13;82.03;;;42.92;;
26325;SDS011;14032;52.510;7.342;2024-03-22T05:58:40;91.88;;;44.88;;
26325;SDS011;14032;52.510;7.342;2024-03-22T06:01:06;78.10;;;42.42;;
26325;SDS011;14032;52.510;7.342;2024-03-22T06:03:32;77.47;;;43.15;;
26325;SDS011;14032;52.510;7.342;2024-03-22T06:05:58;82.32;;;42.90;;
26325;SDS011;14032;52.510;7.342;2024-03-22T06:08:27;82.10;;;40.92;;
26325;SDS011;14032;52.510;7.342;2024-03-22T06:10:54;81.40;;;41.85;;
26325;SDS011;14032;52.510;7.342;2024-03-22T06:13:23;81.35;;;42.45;;
26325;SDS011;14032;52.510;7.342;2024-03-22T06:15:50;88.95;;;44.58;;
26325;SDS011;14032;52.510;7.342;2024-03-22T06:18:17;80.22;;;43.47;;
26325;SDS011;14032;52.510;7.342;2024-03-22T06:20:43;81.03;;;43.85;;
26325;SDS011;14032;52.510;7.342;2024-03-22T06:23:09;82.38;;;44.17;;
26325;SDS011;14032;52.510;7.342;2024-03-22T06:25:34;85.28;;;42.95;;
26325;SDS011;14032;52.510;7.342;2024-03-22T06:28:00;80.45;;;42.67;;
26325;SDS011;14032;52.510;7.342;2024-03-22T06:30:26;81.13;;;43.10;;
26325;SDS011;14032;52.510;7.342;2024-03-22T06:32:55;82.88;;;44.28;;
26325;SDS011;14032;52.510;7.342;2024-03-22T06:35:21;79.15;;;43.53;;
26325;SDS011;14032;52.510;7.342;2024-03-22T06:37:48;79.10;;;42.78;;
26325;SDS011;14032;52.510;7.342;2024-03-22T06:40:14;78.78;;;42.40;;
26325;SDS011;14032;52.510;7.342;2024-03-22T06:42:40;79.28;;;43.20;;
26325;SDS011;14032;52.510;7.342;2024-03-22T06:45:06;73.90;;;41.53;;
26325;SDS011;14032;52.510;7.342;2024-03-22T06:47:32;78.20;;;43.53;;
26325;SDS011;14032;52.510;7.342;2024-03-22T06:49:59;74.63;;;42.00;;
26325;SDS011;14032;52.510;7.342;2024-03-22T06:52:25;79.40;;;44.30;;
26325;SDS011;14032;52.510;7.342;2024-03-22T06:54:50;77.50;;;42.97;;
26325;SDS011;14032;52.510;7.342;2024-03-22T06:57:17;76.72;;;44.22;;
26325;SDS011;14032;52.510;7.342;2024-03-22T06:59:43;81.30;;;43.35;;
26325;SDS011;14032;52.510;7.342;2024-03-22T07:02:12;83.78;;;44.03;;
26325;SDS011;14032;52.510;7.342;2024-03-22T07:04:40;82.22;;;44.88;;
26325;SDS011;14032;52.510;7.342;2024-03-22T07:07:06;82.18;;;46.25;;
26325;SDS011;14032;52.510;7.342;2024-03-22T07:09:35;86.78;;;43.80;;
26325;SDS011;14032;52.510;7.342;2024-03-22T07:12:01;84.47;;;45.58;;
26325;SDS011;14032;52.510;7.342;2024-03-22T07:14:26;79.18;;;44.42;;
26325;SDS011;14032;52.510;7.342;2024-03-22T07:16:53;86.63;;;45.55;;
26325;SDS011;14032;52.510;7.342;2024-03-22T07:19:19;90.07;;;47.38;;
26325;SDS011;14032;52.510;7.342;2024-03-22T07:21:46;81.13;;;45.22;;
26325;SDS011;14032;52.510;7.342;2024-03-22T07:24:12;84.88;;;45.92;;
26325;SDS011;14032;52.510;7.342;2024-03-22T07:26:37;78.18;;;43.28;;
26325;SDS011;14032;52.510;7.342;2024-03-22T07:29:03;80.22;;;43.83;;
26325;SDS011;14032;52.510;7.342;2024-03-22T07:31:29;85.22;;;43.60;;
26325;SDS011;14032;52.510;7.342;2024-03-22T07:33:55;84.45;;;43.03;;
26325;SDS011;14032;52.510;7.342;2024-03-22T07:36:21;80.28;;;42.95;;
26325;SDS011;14032;52.510;7.342;2024-03-22T07:38:46;78.00;;;42.45;;
26325;SDS011;14032;52.510;7.342;2024-03-22T07:41:14;81.32;;;41.78;;
26325;SDS011;14032;52.510;7.342;2024-03-22T07:43:40;72.68;;;40.60;;
26325;SDS011;14032;52.510;7.342;2024-03-22T07:46:05;78.97;;;40.88;;
26325;SDS011;14032;52.510;7.342;2024-03-22T07:48:31;74.47;;;39.10;;
26325;SDS011;14032;52.510;7.342;2024-03-22T07:51:00;66.15;;;37.72;;
26325;SDS011;14032;52.510;7.342;2024-03-22T07:53:26;71.38;;;38.00;;
26325;SDS011;14032;52.510;7.342;2024-03-22T07:55:52;72.68;;;36.47;;
26325;SDS011;14032;52.510;7.342;2024-03-22T07:58:17;68.65;;;37.33;;
26325;SDS011;14032;52.510;7.342;2024-03-22T08:00:44;65.82;;;36.17;;
26325;SDS011;14032;52.510;7.342;2024-03-22T08:03:13;64.13;;;36.03;;
26325;SDS011;14032;52.510;7.342;2024-03-22T08:05:42;65.70;;;36.55;;
26325;SDS011;14032;52.510;7.342;2024-03-22T08:08:08;61.47;;;35.38;;
26325;SDS011;14032;52.510;7.342;2024-03-22T08:10:33;66.75;;;36.20;;
26325;SDS011;14032;52.510;7.342;2024-03-22T08:12:59;61.45;;;34.92;;
26325;SDS011;14032;52.510;7.342;2024-03-22T08:15:28;65.78;;;35.67;;
26325;SDS011;14032;52.510;7.342;2024-03-22T08:17:58;66.30;;;36.17;;
26325;SDS011;14032;52.510;7.342;2024-03-22T08:20:24;64.22;;;34.85;;
26325;SDS011;14032;52.510;7.342;2024-03-22T08:22:52;57.50;;;33.65;;
26325;SDS011;14032;52.510;7.342;2024-03-22T08:25:18;57.90;;;33.25;;
26325;SDS011;14032;52.510;7.342;2024-03-22T08:27:45;58.40;;;33.60;;
26325;SDS011;14032;52.510;7.342;2024-03-22T08:30:12;59.58;;;34.28;;
26325;SDS011;14032;52.510;7.342;2024-03-22T08:32:38;60.38;;;35.15;;
26325;SDS011;14032;52.510;7.342;2024-03-22T08:35:03;57.90;;;33.67;;
26325;SDS011;14032;52.510;7.342;2024-03-22T08:37:33;58.28;;;34.80;;
26325;SDS011;14032;52.510;7.342;2024-03-22T08:39:59;59.50;;;33.47;;
26325;SDS011;14032;52.510;7.342;2024-03-22T08:42:24;61.95;;;33.92;;
26325;SDS011;14032;52.510;7.342;2024-03-22T08:44:50;56.55;;;32.42;;
26325;SDS011;14032;52.510;7.342;2024-03-22T08:47:15;53.90;;;33.28;;
26325;SDS011;14032;52.510;7.342;2024-03-22T08:49:41;55.83;;;32.58;;
26325;SDS011;14032;52.510;7.342;2024-03-22T08:52:09;59.25;;;34.00;;
26325;SDS011;14032;52.510;7.342;2024-03-22T08:54:35;58.78;;;34.47;;
26325;SDS011;14032;52.510;7.342;2024-03-22T08:57:00;55.40;;;32.28;;
26325;SDS011;14032;52.510;7.342;2024-03-22T08:59:26;57.72;;;33.67;;
26325;SDS011;14032;52.510;7.342;2024-03-22T09:01:52;57.30;;;32.83;;
26325;SDS011;14032;52.510;7.342;2024-03-22T09:04:17;60.47;;;34.15;;
26325;SDS011;14032;52.510;7.342;2024-03-22T09:06:44;54.35;;;32.97;;
26325;SDS011;14032;52.510;7.342;2024-03-22T09:09:10;57.65;;;32.97;;
26325;SDS011;14032;52.510;7.342;2024-03-22T09:11:36;56.50;;;33.33;;
26325;SDS011;14032;52.510;7.342;2024-03-22T09:14:02;51.95;;;31.45;;
26325;SDS011;14032;52.510;7.342;2024-03-22T09:16:27;59.65;;;33.05;;
26325;SDS011;14032;52.510;7.342;2024-03-22T09:18:53;54.63;;;32.88;;
26325;SDS011;14032;52.510;7.342;2024-03-22T09:21:20;56.35;;;32.05;;
26325;SDS011;14032;52.510;7.342;2024-03-22T09:23:46;58.85;;;33.05;;
26325;SDS011;14032;52.510;7.342;2024-03-22T09:26:11;56.63;;;32.13;;
26325;SDS011;14032;52.510;7.342;2024-03-22T09:28:37;52.33;;;31.23;;
26325;SDS011;14032;52.510;7.342;2024-03-22T09:31:06;58.45;;;32.15;;
26325;SDS011;14032;52.510;7.342;2024-03-22T09:33:32;58.05;;;32.92;;
26325;SDS011;14032;52.510;7.342;2024-03-22T09:36:01;56.25;;;32.55;;
26325;SDS011;14032;52.510;7.342;2024-03-22T09:38:27;53.08;;;34.10;;
26325;SDS011;14032;52.510;7.342;2024-03-22T09:40:53;55.55;;;33.05;;
26325;SDS011;14032;52.510;7.342;2024-03-22T09:43:20;53.80;;;31.63;;
26325;SDS011;14032;52.510;7.342;2024-03-22T09:45:47;55.03;;;31.88;;
26325;SDS011;14032;52.510;7.342;2024-03-22T09:48:17;58.40;;;32.60;;
26325;SDS011;14032;52.510;7.342;2024-03-22T09:50:44;54.38;;;30.42;;
26325;SDS011;14032;52.510;7.342;2024-03-22T09:53:16;58.33;;;32.35;;
26325;SDS011;14032;52.510;7.342;2024-03-22T09:55:44;57.47;;;32.40;;
26325;SDS011;14032;52.510;7.342;2024-03-22T09:58:12;52.55;;;29.95;;
26325;SDS011;14032;52.510;7.342;2024-03-22T10:00:37;49.70;;;31.60;;
26325;SDS011;14032;52.510;7.342;2024-03-22T10:03:03;55.10;;;32.50;;
26325;SDS011;14032;52.510;7.342;2024-03-22T10:05:30;53.55;;;29.55;;
26325;SDS011;14032;52.510;7.342;2024-03-22T10:07:56;57.85;;;32.33;;
26325;SDS011;14032;52.510;7.342;2024-03-22T10:10:23;52.45;;;30.38;;
26325;SDS011;14032;52.510;7.342;2024-03-22T10:12:48;55.33;;;31.45;;
26325;SDS011;14032;52.510;7.342;2024-03-22T10:15:14;57.20;;;31.83;;
26325;SDS011;14032;52.510;7.342;2024-03-22T10:17:41;55.72;;;31.15;;
26325;SDS011;14032;52.510;7.342;2024-03-22T10:20:07;55.13;;;30.98;;
26325;SDS011;14032;52.510;7.342;2024-03-22T10:22:42;54.25;;;30.55;;
26325;SDS011;14032;52.510;7.342;2024-03-22T10:25:08;54.67;;;31.90;;
26325;SDS011;14032;52.510;7.342;2024-03-22T10:27:37;61.97;;;32.47;;
26325;SDS011;14032;52.510;7.342;2024-03-22T10:30:05;56.20;;;32.20;;
26325;SDS011;14032;52.510;7.342;2024-03-22T10:32:33;57.08;;;32.08;;
26325;SDS011;14032;52.510;7.342;2024-03-22T10:35:00;56.83;;;30.67;;
26325;SDS011;14032;52.510;7.342;2024-03-22T10:37:32;54.47;;;32.00;;
26325;SDS011;14032;52.510;7.342;2024-03-22T10:39:58;61.53;;;32.65;;
26325;SDS011;14032;52.510;7.342;2024-03-22T10:42:26;57.70;;;31.40;;
26325;SDS011;14032;52.510;7.342;2024-03-22T10:44:52;55.03;;;30.85;;
26325;SDS011;14032;52.510;7.342;2024-03-22T10:47:17;53.88;;;31.23;;
26325;SDS011;14032;52.510;7.342;2024-03-22T10:49:45;54.40;;;29.58;;
26325;SDS011;14032;52.510;7.342;2024-03-22T10:52:13;58.45;;;29.52;;
26325;SDS011;14032;52.510;7.342;2024-03-22T10:54:43;54.08;;;28.98;;
26325;SDS011;14032;52.510;7.342;2024-03-22T10:57:14;50.38;;;28.30;;
26325;SDS011;14032;52.510;7.342;2024-03-22T10:59:42;54.03;;;30.75;;
26325;SDS011;14032;52.510;7.342;2024-03-22T11:02:10;51.92;;;28.38;;
26325;SDS011;14032;52.510;7.342;2024-03-22T11:04:36;45.97;;;28.25;;
26325;SDS011;14032;52.510;7.342;2024-03-22T11:07:02;48.65;;;27.13;;
26325;SDS011;14032;52.510;7.342;2024-03-22T11:09:28;47.15;;;25.85;;
26325;SDS011;14032;52.510;7.342;2024-03-22T11:11:55;40.75;;;24.20;;
26325;SDS011;14032;52.510;7.342;2024-03-22T11:14:25;42.65;;;23.75;;
26325;SDS011;14032;52.510;7.342;2024-03-22T11:16:51;48.05;;;24.85;;
26325;SDS011;14032;52.510;7.342;2024-03-22T11:19:18;46.28;;;24.90;;
26325;SDS011;14032;52.510;7.342;2024-03-22T11:21:43;43.60;;;24.23;;
26325;SDS011;14032;52.510;7.342;2024-03-22T11:24:09;46.60;;;24.10;;
26325;SDS011;14032;52.510;7.342;2024-03-22T11:26:36;42.53;;;23.70;;
26325;SDS011;14032;52.510;7.342;2024-03-22T11:29:02;36.85;;;21.70;;
26325;SDS011;14032;52.510;7.342;2024-03-22T11:31:29;35.42;;;21.30;;
26325;SDS011;14032;52.510;7.342;2024-03-22T11:33:54;34.60;;;21.00;;
26325;SDS011;14032;52.510;7.342;2024-03-22T11:36:21;32.50;;;18.90;;
26325;SDS011;14032;52.510;7.342;2024-03-22T11:38:47;34.40;;;18.85;;
26325;SDS011;14032;52.510;7.342;2024-03-22T11:41:36;29.98;;;18.38;;
26325;SDS011;14032;52.510;7.342;2024-03-22T11:44:02;32.00;;;18.00;;
26325;SDS011;14032;52.510;7.342;2024-03-22T11:46:28;26.42;;;17.10;;
26325;SDS011;14032;52.510;7.342;2024-03-22T11:48:54;31.33;;;17.25;;
26325;SDS011;14032;52.510;7.342;2024-03-22T11:51:20;26.88;;;15.68;;
26325;SDS011;14032;52.510;7.342;2024-03-22T11:53:52;27.73;;;17.08;;
26325;SDS011;14032;52.510;7.342;2024-03-22T11:56:21;31.23;;;17.52;;
26325;SDS011;14032;52.510;7.342;2024-03-22T11:58:47;26.67;;;17.40;;
26325;SDS011;14032;52.510;7.342;2024-03-22T12:01:14;27.63;;;16.90;;
26325;SDS011;14032;52.510;7.342;2024-03-22T12:03:42;29.60;;;17.65;;
26325;SDS011;14032;52.510;7.342;2024-03-22T12:06:09;27.40;;;17.15;;
26325;SDS011;14032;52.510;7.342;2024-03-22T12:08:36;29.20;;;17.33;;
26325;SDS011;14032;52.510;7.342;2024-03-22T12:11:03;28.92;;;16.85;;
26325;SDS011;14032;52.510;7.342;2024-03-22T12:13:29;28.73;;;17.85;;
26325;SDS011;14032;52.510;7.342;2024-03-22T12:15:54;32.38;;;17.33;;
26325;SDS011;14032;52.510;7.342;2024-03-22T12:18:20;30.42;;;17.02;;
26325;SDS011;14032;52.510;7.342;2024-03-22T12:20:46;28.63;;;17.30;;
26325;SDS011;14032;52.510;7.342;2024-03-22T12:23:11;28.67;;;16.65;;
26325;SDS011;14032;52.510;7.342;2024-03-22T12:25:37;27.95;;;16.45;;
26325;SDS011;14032;52.510;7.342;2024-03-22T12:28:03;25.65;;;15.88;;
26325;SDS011;14032;52.510;7.342;2024-03-22T12:30:29;25.67;;;16.50;;
26325;SDS011;14032;52.510;7.342;2024-03-22T12:32:55;25.45;;;14.38;;
26325;SDS011;14032;52.510;7.342;2024-03-22T12:35:21;25.80;;;15.45;;
26325;SDS011;14032;52.510;7.342;2024-03-22T12:37:46;23.75;;;15.10;;
26325;SDS011;14032;52.510;7.342;2024-03-22T12:40:12;23.42;;;14.98;;
26325;SDS011;14032;52.510;7.342;2024-03-22T12:42:39;24.80;;;15.98;;
26325;SDS011;14032;52.510;7.342;2024-03-22T12:45:05;23.35;;;14.90;;
26325;SDS011;14032;52.510;7.342;2024-03-22T12:47:32;24.27;;;15.07;;
26325;SDS011;14032;52.510;7.342;2024-03-22T12:49:58;23.73;;;14.13;;
26325;SDS011;14032;52.510;7.342;2024-03-22T12:52:23;22.65;;;14.50;;
26325;SDS011;14032;52.510;7.342;2024-03-22T12:54:49;24.73;;;14.20;;
26325;SDS011;14032;52.510;7.342;2024-03-22T12:57:15;22.80;;;14.43;;
26325;SDS011;14032;52.510;7.342;2024-03-22T12:59:40;22.45;;;14.05;;
26325;SDS011;14032;52.510;7.342;2024-03-22T13:02:06;23.50;;;14.52;;
26325;SDS011;14032;52.510;7.342;2024-03-22T13:04:33;20.85;;;13.90;;
26325;SDS011;14032;52.510;7.342;2024-03-22T13:06:58;21.90;;;14.65;;
26325;SDS011;14032;52.510;7.342;2024-03-22T13:09:24;22.92;;;14.32;;
26325;SDS011;14032;52.510;7.342;2024-03-22T13:11:49;25.23;;;14.93;;
26325;SDS011;14032;52.510;7.342;2024-03-22T13:14:15;23.80;;;15.32;;
26325;SDS011;14032;52.510;7.342;2024-03-22T13:16:41;23.67;;;14.70;;
26325;SDS011;14032;52.510;7.342;2024-03-22T13:19:06;22.75;;;13.98;;
26325;SDS011;14032;52.510;7.342;2024-03-22T13:21:37;24.33;;;13.38;;
26325;SDS011;14032;52.510;7.342;2024-03-22T13:24:03;21.02;;;13.25;;
26325;SDS011;14032;52.510;7.342;2024-03-22T13:26:29;23.17;;;14.00;;
26325;SDS011;14032;52.510;7.342;2024-03-22T13:28:56;20.85;;;13.38;;
26325;SDS011;14032;52.510;7.342;2024-03-22T13:31:21;18.88;;;12.52;;
26325;SDS011;14032;52.510;7.342;2024-03-22T13:33:47;18.65;;;12.38;;
26325;SDS011;14032;52.510;7.342;2024-03-22T13:36:13;18.60;;;11.90;;
26325;SDS011;14032;52.510;7.342;2024-03-22T13:38:38;19.02;;;12.32;;
26325;SDS011;14032;52.510;7.342;2024-03-22T13:41:06;17.98;;;11.35;;
26325;SDS011;14032;52.510;7.342;2024-03-22T13:43:33;15.45;;;11.07;;
26325;SDS011;14032;52.510;7.342;2024-03-22T13:46:00;12.15;;;9.52;;
26325;SDS011;14032;52.510;7.342;2024-03-22T13:48:26;13.70;;;9.98;;
26325;SDS011;14032;52.510;7.342;2024-03-22T13:50:52;13.32;;;9.82;;
26325;SDS011;14032;52.510;7.342;2024-03-22T13:53:19;12.50;;;9.57;;
26325;SDS011;14032;52.510;7.342;2024-03-22T13:55:47;17.35;;;10.48;;
26325;SDS011;14032;52.510;7.342;2024-03-22T13:58:13;15.93;;;10.55;;
26325;SDS011;14032;52.510;7.342;2024-03-22T14:00:39;13.40;;;9.43;;
26325;SDS011;14032;52.510;7.342;2024-03-22T14:03:05;14.65;;;10.05;;
26325;SDS011;14032;52.510;7.342;2024-03-22T14:05:31;17.20;;;9.98;;
26325;SDS011;14032;52.510;7.342;2024-03-22T14:07:57;12.55;;;8.10;;
26325;SDS011;14032;52.510;7.342;2024-03-22T14:10:26;11.50;;;7.97;;
26325;SDS011;14032;52.510;7.342;2024-03-22T14:12:53;12.18;;;8.38;;
26325;SDS011;14032;52.510;7.342;2024-03-22T14:15:19;12.15;;;8.15;;